sensor_id;sensor_type;location;lat;lon;timestamp;P1;durP1;ratioP1;P2;durP2;ratioP2
62633;SDS011;48704;50.534;6.442;2024-03-25T00:01:23;11.05;;;2.92;;
62633;SDS011;48704;50.534;6.442;2024-03-25T00:03:49;14.52;;;3.60;;
62633;SDS011;48704;50.534;6.442;2024-03-25T00:06:14;16.08;;;3.63;;
62633;SDS011;48704;50.534;6.442;2024-03-25T00:08:40;9.45;;;2.92;;
62633;SDS011;48704;50.534;6.442;2024-03-25T00:11:05;12.30;;;3.15;;
62633;SDS011;48704;50.534;6.442;2024-03-25T00:13:30;9.23;;;2.42;;
62633;SDS011;48704;50.534;6.442;2024-03-25T00:15:56;14.15;;;2.78;;
62633;SDS011;48704;50.534;6.442;2024-03-25T00:18:21;10.75;;;3.88;;
62633;SDS011;48704;50.534;6.442;2024-03-25T00:20:46;11.35;;;3.35;;
62633;SDS011;48704;50.534;6.442;2024-03-25T00:23:11;10.80;;;2.83;;
62633;SDS011;48704;50.534;6.442;2024-03-25T00:25:37;8.95;;;3.45;;
62633;SDS011;48704;50.534;6.442;2024-03-25T00:28:02;10.07;;;3.13;;
62633;SDS011;48704;50.534;6.442;2024-03-25T00:30:29;18.50;;;4.03;;
62633;SDS011;48704;50.534;6.442;2024-03-25T00:32:54;9.32;;;3.28;;
62633;SDS011;48704;50.534;6.442;2024-03-25T00:35:19;15.55;;;3.63;;
62633;SDS011;48704;50.534;6.442;2024-03-25T00:37:45;12.10;;;2.85;;
62633;SDS011;48704;50.534;6.442;2024-03-25T00:40:11;13.23;;;4.18;;
62633;SDS011;48704;50.534;6.442;2024-03-25T00:42:36;14.45;;;3.90;;
62633;SDS011;48704;50.534;6.442;2024-03-25T00:45:02;15.68;;;4.15;;
62633;SDS011;48704;50.534;6.442;2024-03-25T00:47:27;13.55;;;3.60;;
62633;SDS011;48704;50.534;6.442;2024-03-25T00:49:53;17.83;;;3.95;;
62633;SDS011;48704;50.534;6.442;2024-03-25T00:52:18;13.30;;;4.63;;
62633;SDS011;48704;50.534;6.442;2024-03-25T00:54:44;7.35;;;3.53;;
62633;SDS011;48704;50.534;6.442;2024-03-25T00:57:09;14.98;;;3.55;;
62633;SDS011;48704;50.534;6.442;2024-03-25T00:59:36;13.43;;;4.07;;
62633;SDS011;48704;50.534;6.442;2024-03-25T01:02:02;9.95;;;3.33;;
62633;SDS011;48704;50.534;6.442;2024-03-25T01:04:27;8.27;;;3.40;;
62633;SDS011;48704;50.534;6.442;2024-03-25T01:06:54;10.02;;;4.10;;
62633;SDS011;48704;50.534;6.442;2024-03-25T01:09:19;8.05;;;3.28;;
62633;SDS011;48704;50.534;6.442;2024-03-25T01:11:44;10.32;;;4.35;;
62633;SDS011;48704;50.534;6.442;2024-03-25T01:14:09;13.20;;;3.97;;
62633;SDS011;48704;50.534;6.442;2024-03-25T01:16:35;10.60;;;3.85;;
62633;SDS011;48704;50.534;6.442;2024-03-25T01:19:00;12.27;;;4.55;;
62633;SDS011;48704;50.534;6.442;2024-03-25T01:21:26;12.82;;;3.33;;
62633;SDS011;48704;50.534;6.442;2024-03-25T01:23:51;15.77;;;4.10;;
62633;SDS011;48704;50.534;6.442;2024-03-25T01:26:16;10.70;;;3.83;;
62633;SDS011;48704;50.534;6.442;2024-03-25T01:28:42;16.95;;;4.45;;
62633;SDS011;48704;50.534;6.442;2024-03-25T01:31:07;11.18;;;3.63;;
62633;SDS011;48704;50.534;6.442;2024-03-25T01:33:33;9.38;;;3.42;;
62633;SDS011;48704;50.534;6.442;2024-03-25T01:35:59;13.00;;;4.65;;
62633;SDS011;48704;50.534;6.442;2024-03-25T01:38:24;11.52;;;4.05;;
62633;SDS011;48704;50.534;6.442;2024-03-25T01:40:50;13.85;;;3.47;;
62633;SDS011;48704;50.534;6.442;2024-03-25T01:43:15;14.27;;;4.63;;
62633;SDS011;48704;50.534;6.442;2024-03-25T01:45:40;8.40;;;3.08;;
62633;SDS011;48704;50.534;6.442;2024-03-25T01:48:07;11.98;;;2.63;;
62633;SDS011;48704;50.534;6.442;2024-03-25T01:50:35;14.52;;;3.30;;
62633;SDS011;48704;50.534;6.442;2024-03-25T01:53:03;12.00;;;2.85;;
62633;SDS011;48704;50.534;6.442;2024-03-25T01:55:29;19.10;;;3.25;;
62633;SDS011;48704;50.534;6.442;2024-03-25T01:57:57;6.53;;;2.50;;
62633;SDS011;48704;50.534;6.442;2024-03-25T02:00:24;15.98;;;2.95;;
62633;SDS011;48704;50.534;6.442;2024-03-25T02:02:51;11.02;;;2.75;;
62633;SDS011;48704;50.534;6.442;2024-03-25T02:05:17;7.50;;;3.10;;
62633;SDS011;48704;50.534;6.442;2024-03-25T02:07:44;19.05;;;3.08;;
62633;SDS011;48704;50.534;6.442;2024-03-25T02:10:10;9.70;;;3.15;;
62633;SDS011;48704;50.534;6.442;2024-03-25T02:12:36;6.32;;;1.73;;
62633;SDS011;48704;50.534;6.442;2024-03-25T02:15:02;12.38;;;2.55;;
62633;SDS011;48704;50.534;6.442;2024-03-25T02:17:29;6.88;;;2.08;;
62633;SDS011;48704;50.534;6.442;2024-03-25T02:19:55;12.90;;;2.30;;
62633;SDS011;48704;50.534;6.442;2024-03-25T02:22:20;8.90;;;2.95;;
62633;SDS011;48704;50.534;6.442;2024-03-25T02:24:45;9.55;;;2.70;;
62633;SDS011;48704;50.534;6.442;2024-03-25T02:27:12;7.28;;;2.00;;
62633;SDS011;48704;50.534;6.442;2024-03-25T02:29:39;9.20;;;2.22;;
62633;SDS011;48704;50.534;6.442;2024-03-25T02:32:06;10.63;;;2.90;;
62633;SDS011;48704;50.534;6.442;2024-03-25T02:34:35;10.05;;;2.22;;
62633;SDS011;48704;50.534;6.442;2024-03-25T02:37:01;14.88;;;2.83;;
62633;SDS011;48704;50.534;6.442;2024-03-25T02:39:27;13.85;;;2.55;;
62633;SDS011;48704;50.534;6.442;2024-03-25T02:41:53;8.07;;;2.60;;
62633;SDS011;48704;50.534;6.442;2024-03-25T02:44:18;7.35;;;2.38;;
62633;SDS011;48704;50.534;6.442;2024-03-25T02:46:44;10.18;;;2.88;;
62633;SDS011;48704;50.534;6.442;2024-03-25T02:49:09;5.20;;;2.30;;
62633;SDS011;48704;50.534;6.442;2024-03-25T02:51:34;6.03;;;2.22;;
62633;SDS011;48704;50.534;6.442;2024-03-25T02:54:00;15.55;;;2.83;;
62633;SDS011;48704;50.534;6.442;2024-03-25T02:56:25;6.28;;;2.60;;
62633;SDS011;48704;50.534;6.442;2024-03-25T02:58:51;14.35;;;3.55;;
62633;SDS011;48704;50.534;6.442;2024-03-25T03:01:16;10.05;;;2.47;;
62633;SDS011;48704;50.534;6.442;2024-03-25T03:03:42;6.30;;;2.65;;
62633;SDS011;48704;50.534;6.442;2024-03-25T03:06:07;10.07;;;2.67;;
62633;SDS011;48704;50.534;6.442;2024-03-25T03:08:32;7.55;;;2.08;;
62633;SDS011;48704;50.534;6.442;2024-03-25T03:10:58;9.98;;;2.65;;
62633;SDS011;48704;50.534;6.442;2024-03-25T03:13:23;5.20;;;2.30;;
62633;SDS011;48704;50.534;6.442;2024-03-25T03:15:48;7.75;;;2.22;;
62633;SDS011;48704;50.534;6.442;2024-03-25T03:18:13;5.05;;;2.22;;
62633;SDS011;48704;50.534;6.442;2024-03-25T03:20:39;7.32;;;2.60;;
62633;SDS011;48704;50.534;6.442;2024-03-25T03:23:04;8.20;;;2.60;;
62633;SDS011;48704;50.534;6.442;2024-03-25T03:25:30;10.85;;;2.95;;
62633;SDS011;48704;50.534;6.442;2024-03-25T03:27:56;5.32;;;1.85;;
62633;SDS011;48704;50.534;6.442;2024-03-25T03:30:21;8.85;;;2.17;;
62633;SDS011;48704;50.534;6.442;2024-03-25T03:32:46;12.30;;;2.63;;
62633;SDS011;48704;50.534;6.442;2024-03-25T03:35:12;11.50;;;2.28;;
62633;SDS011;48704;50.534;6.442;2024-03-25T03:37:37;7.63;;;3.53;;
62633;SDS011;48704;50.534;6.442;2024-03-25T03:40:02;6.57;;;2.90;;
62633;SDS011;48704;50.534;6.442;2024-03-25T03:42:31;9.20;;;3.25;;
62633;SDS011;48704;50.534;6.442;2024-03-25T03:44:56;8.57;;;2.63;;
62633;SDS011;48704;50.534;6.442;2024-03-25T03:47:21;6.60;;;2.58;;
62633;SDS011;48704;50.534;6.442;2024-03-25T03:49:47;9.40;;;3.70;;
62633;SDS011;48704;50.534;6.442;2024-03-25T03:52:12;6.65;;;3.35;;
62633;SDS011;48704;50.534;6.442;2024-03-25T03:54:37;10.90;;;3.40;;
62633;SDS011;48704;50.534;6.442;2024-03-25T03:57:04;8.52;;;3.35;;
62633;SDS011;48704;50.534;6.442;2024-03-25T03:59:30;10.05;;;3.08;;
62633;SDS011;48704;50.534;6.442;2024-03-25T04:01:56;9.90;;;3.47;;
62633;SDS011;48704;50.534;6.442;2024-03-25T04:04:21;5.28;;;2.40;;
62633;SDS011;48704;50.534;6.442;2024-03-25T04:06:46;8.80;;;3.08;;
62633;SDS011;48704;50.534;6.442;2024-03-25T04:09:11;11.02;;;4.10;;
62633;SDS011;48704;50.534;6.442;2024-03-25T04:11:38;6.80;;;2.78;;
62633;SDS011;48704;50.534;6.442;2024-03-25T04:14:04;6.15;;;2.78;;
62633;SDS011;48704;50.534;6.442;2024-03-25T04:16:29;7.55;;;2.75;;
62633;SDS011;48704;50.534;6.442;2024-03-25T04:18:55;6.40;;;3.55;;
62633;SDS011;48704;50.534;6.442;2024-03-25T04:21:21;10.32;;;2.90;;
62633;SDS011;48704;50.534;6.442;2024-03-25T04:23:47;12.05;;;3.28;;
62633;SDS011;48704;50.534;6.442;2024-03-25T04:26:14;7.78;;;3.33;;
62633;SDS011;48704;50.534;6.442;2024-03-25T04:28:39;8.27;;;2.80;;
62633;SDS011;48704;50.534;6.442;2024-03-25T04:31:06;10.43;;;2.80;;
62633;SDS011;48704;50.534;6.442;2024-03-25T04:33:32;6.93;;;2.28;;
62633;SDS011;48704;50.534;6.442;2024-03-25T04:35:58;5.90;;;2.42;;
62633;SDS011;48704;50.534;6.442;2024-03-25T04:38:23;10.63;;;2.67;;
62633;SDS011;48704;50.534;6.442;2024-03-25T04:40:49;8.57;;;2.97;;
62633;SDS011;48704;50.534;6.442;2024-03-25T04:43:15;9.32;;;2.75;;
62633;SDS011;48704;50.534;6.442;2024-03-25T04:45:40;12.00;;;3.42;;
62633;SDS011;48704;50.534;6.442;2024-03-25T04:48:06;6.45;;;2.90;;
62633;SDS011;48704;50.534;6.442;2024-03-25T04:50:32;8.52;;;2.67;;
62633;SDS011;48704;50.534;6.442;2024-03-25T04:52:58;10.93;;;3.22;;
62633;SDS011;48704;50.534;6.442;2024-03-25T04:55:23;4.72;;;2.72;;
62633;SDS011;48704;50.534;6.442;2024-03-25T04:57:48;11.93;;;3.28;;
62633;SDS011;48704;50.534;6.442;2024-03-25T05:00:14;10.32;;;3.10;;
62633;SDS011;48704;50.534;6.442;2024-03-25T05:02:39;11.30;;;4.07;;
62633;SDS011;48704;50.534;6.442;2024-03-25T05:05:05;12.10;;;3.50;;
62633;SDS011;48704;50.534;6.442;2024-03-25T05:07:32;11.98;;;3.80;;
62633;SDS011;48704;50.534;6.442;2024-03-25T05:09:57;10.50;;;4.05;;
62633;SDS011;48704;50.534;6.442;2024-03-25T05:12:22;9.82;;;4.30;;
62633;SDS011;48704;50.534;6.442;2024-03-25T05:14:48;12.02;;;5.22;;
62633;SDS011;48704;50.534;6.442;2024-03-25T05:17:13;14.50;;;4.68;;
62633;SDS011;48704;50.534;6.442;2024-03-25T05:19:38;9.88;;;4.55;;
62633;SDS011;48704;50.534;6.442;2024-03-25T05:22:04;9.20;;;3.63;;
62633;SDS011;48704;50.534;6.442;2024-03-25T05:24:29;28.63;;;5.28;;
62633;SDS011;48704;50.534;6.442;2024-03-25T05:26:54;10.98;;;4.30;;
62633;SDS011;48704;50.534;6.442;2024-03-25T05:29:20;11.73;;;4.28;;
62633;SDS011;48704;50.534;6.442;2024-03-25T05:31:58;9.80;;;4.28;;
62633;SDS011;48704;50.534;6.442;2024-03-25T05:34:25;13.90;;;5.07;;
62633;SDS011;48704;50.534;6.442;2024-03-25T05:36:52;10.70;;;5.03;;
62633;SDS011;48704;50.534;6.442;2024-03-25T05:39:17;11.15;;;5.15;;
62633;SDS011;48704;50.534;6.442;2024-03-25T05:41:42;11.20;;;5.35;;
62633;SDS011;48704;50.534;6.442;2024-03-25T05:44:08;13.18;;;5.22;;
62633;SDS011;48704;50.534;6.442;2024-03-25T05:46:33;13.05;;;5.18;;
62633;SDS011;48704;50.534;6.442;2024-03-25T05:49:02;18.25;;;5.85;;
62633;SDS011;48704;50.534;6.442;2024-03-25T05:51:28;15.15;;;6.03;;
62633;SDS011;48704;50.534;6.442;2024-03-25T05:53:58;13.05;;;5.53;;
62633;SDS011;48704;50.534;6.442;2024-03-25T05:56:24;12.52;;;5.25;;
62633;SDS011;48704;50.534;6.442;2024-03-25T05:58:55;12.15;;;5.72;;
62633;SDS011;48704;50.534;6.442;2024-03-25T06:01:21;18.98;;;6.32;;
62633;SDS011;48704;50.534;6.442;2024-03-25T06:03:46;11.43;;;5.88;;
62633;SDS011;48704;50.534;6.442;2024-03-25T06:06:12;10.50;;;4.85;;
62633;SDS011;48704;50.534;6.442;2024-03-25T06:08:37;13.43;;;5.70;;
62633;SDS011;48704;50.534;6.442;2024-03-25T06:11:02;15.68;;;6.32;;
62633;SDS011;48704;50.534;6.442;2024-03-25T06:13:28;11.00;;;5.05;;
62633;SDS011;48704;50.534;6.442;2024-03-25T06:15:53;14.43;;;5.72;;
62633;SDS011;48704;50.534;6.442;2024-03-25T06:18:19;11.90;;;4.93;;
62633;SDS011;48704;50.534;6.442;2024-03-25T06:20:45;15.07;;;5.75;;
62633;SDS011;48704;50.534;6.442;2024-03-25T06:23:10;13.60;;;5.43;;
62633;SDS011;48704;50.534;6.442;2024-03-25T06:25:35;10.00;;;4.53;;
62633;SDS011;48704;50.534;6.442;2024-03-25T06:28:02;11.05;;;5.18;;
62633;SDS011;48704;50.534;6.442;2024-03-25T06:30:28;12.65;;;5.05;;
62633;SDS011;48704;50.534;6.442;2024-03-25T06:35:56;12.60;;;5.70;;
62633;SDS011;48704;50.534;6.442;2024-03-25T06:38:21;10.27;;;4.65;;
62633;SDS011;48704;50.534;6.442;2024-03-25T06:40:46;15.40;;;5.57;;
62633;SDS011;48704;50.534;6.442;2024-03-25T06:43:12;13.77;;;5.72;;
62633;SDS011;48704;50.534;6.442;2024-03-25T06:45:37;15.10;;;5.07;;
62633;SDS011;48704;50.534;6.442;2024-03-25T06:48:02;14.35;;;5.38;;
62633;SDS011;48704;50.534;6.442;2024-03-25T06:50:28;17.58;;;6.15;;
62633;SDS011;48704;50.534;6.442;2024-03-25T06:52:53;14.85;;;6.97;;
62633;SDS011;48704;50.534;6.442;2024-03-25T06:55:19;15.90;;;6.95;;
62633;SDS011;48704;50.534;6.442;2024-03-25T06:57:47;14.27;;;6.00;;
62633;SDS011;48704;50.534;6.442;2024-03-25T07:00:13;15.40;;;6.35;;
62633;SDS011;48704;50.534;6.442;2024-03-25T07:02:39;13.18;;;5.72;;
62633;SDS011;48704;50.534;6.442;2024-03-25T07:05:05;14.75;;;6.03;;
62633;SDS011;48704;50.534;6.442;2024-03-25T07:07:31;16.77;;;6.55;;
62633;SDS011;48704;50.534;6.442;2024-03-25T07:09:56;12.02;;;5.53;;
62633;SDS011;48704;50.534;6.442;2024-03-25T07:12:22;13.40;;;6.00;;
62633;SDS011;48704;50.534;6.442;2024-03-25T07:14:47;17.38;;;6.72;;
62633;SDS011;48704;50.534;6.442;2024-03-25T07:17:12;14.95;;;6.60;;
62633;SDS011;48704;50.534;6.442;2024-03-25T07:19:38;10.07;;;5.40;;
62633;SDS011;48704;50.534;6.442;2024-03-25T07:22:03;13.05;;;5.93;;
62633;SDS011;48704;50.534;6.442;2024-03-25T07:24:28;14.05;;;6.60;;
62633;SDS011;48704;50.534;6.442;2024-03-25T07:26:54;11.57;;;5.05;;
62633;SDS011;48704;50.534;6.442;2024-03-25T07:29:19;12.93;;;5.65;;
62633;SDS011;48704;50.534;6.442;2024-03-25T07:31:44;11.38;;;5.57;;
62633;SDS011;48704;50.534;6.442;2024-03-25T07:34:10;12.75;;;5.55;;
62633;SDS011;48704;50.534;6.442;2024-03-25T07:36:36;11.18;;;5.38;;
62633;SDS011;48704;50.534;6.442;2024-03-25T07:39:02;11.30;;;5.28;;
62633;SDS011;48704;50.534;6.442;2024-03-25T07:41:30;12.65;;;4.90;;
62633;SDS011;48704;50.534;6.442;2024-03-25T07:43:55;10.68;;;4.07;;
62633;SDS011;48704;50.534;6.442;2024-03-25T07:46:21;9.95;;;4.55;;
62633;SDS011;48704;50.534;6.442;2024-03-25T07:48:46;9.45;;;4.65;;
62633;SDS011;48704;50.534;6.442;2024-03-25T07:51:11;11.05;;;4.53;;
62633;SDS011;48704;50.534;6.442;2024-03-25T07:53:37;9.10;;;4.60;;
62633;SDS011;48704;50.534;6.442;2024-03-25T07:56:02;12.75;;;5.43;;
62633;SDS011;48704;50.534;6.442;2024-03-25T07:58:29;9.50;;;4.53;;
62633;SDS011;48704;50.534;6.442;2024-03-25T08:00:55;12.68;;;5.32;;
62633;SDS011;48704;50.534;6.442;2024-03-25T08:03:21;8.77;;;4.45;;
62633;SDS011;48704;50.534;6.442;2024-03-25T08:05:47;9.25;;;4.38;;
62633;SDS011;48704;50.534;6.442;2024-03-25T08:08:12;10.38;;;4.68;;
62633;SDS011;48704;50.534;6.442;2024-03-25T08:10:38;8.70;;;4.57;;
62633;SDS011;48704;50.534;6.442;2024-03-25T08:13:03;9.73;;;4.97;;
62633;SDS011;48704;50.534;6.442;2024-03-25T08:15:28;9.35;;;4.10;;
62633;SDS011;48704;50.534;6.442;2024-03-25T08:17:54;8.63;;;3.85;;
62633;SDS011;48704;50.534;6.442;2024-03-25T08:20:19;7.65;;;3.85;;
62633;SDS011;48704;50.534;6.442;2024-03-25T08:22:44;12.05;;;3.95;;
62633;SDS011;48704;50.534;6.442;2024-03-25T08:25:11;9.07;;;3.75;;
62633;SDS011;48704;50.534;6.442;2024-03-25T08:27:37;10.57;;;4.25;;
62633;SDS011;48704;50.534;6.442;2024-03-25T08:30:02;9.07;;;4.70;;
62633;SDS011;48704;50.534;6.442;2024-03-25T08:32:28;9.73;;;4.97;;
62633;SDS011;48704;50.534;6.442;2024-03-25T08:34:54;7.43;;;4.10;;
62633;SDS011;48704;50.534;6.442;2024-03-25T08:37:19;9.88;;;4.32;;
62633;SDS011;48704;50.534;6.442;2024-03-25T08:39:45;7.03;;;3.30;;
62633;SDS011;48704;50.534;6.442;2024-03-25T08:42:10;9.23;;;3.95;;
62633;SDS011;48704;50.534;6.442;2024-03-25T08:44:36;6.60;;;3.40;;
62633;SDS011;48704;50.534;6.442;2024-03-25T08:47:01;7.55;;;2.85;;
62633;SDS011;48704;50.534;6.442;2024-03-25T08:49:26;7.65;;;3.58;;
62633;SDS011;48704;50.534;6.442;2024-03-25T08:51:51;6.97;;;3.40;;
62633;SDS011;48704;50.534;6.442;2024-03-25T08:54:17;10.52;;;4.68;;
62633;SDS011;48704;50.534;6.442;2024-03-25T08:56:42;9.40;;;4.55;;
62633;SDS011;48704;50.534;6.442;2024-03-25T08:59:08;8.40;;;3.95;;
62633;SDS011;48704;50.534;6.442;2024-03-25T09:01:34;7.15;;;4.00;;
62633;SDS011;48704;50.534;6.442;2024-03-25T09:04:00;8.20;;;3.33;;
62633;SDS011;48704;50.534;6.442;2024-03-25T09:06:25;8.90;;;3.35;;
62633;SDS011;48704;50.534;6.442;2024-03-25T09:08:50;8.38;;;3.47;;
62633;SDS011;48704;50.534;6.442;2024-03-25T09:11:34;6.32;;;3.10;;
62633;SDS011;48704;50.534;6.442;2024-03-25T09:14:00;6.30;;;3.00;;
62633;SDS011;48704;50.534;6.442;2024-03-25T09:16:27;7.82;;;3.30;;
62633;SDS011;48704;50.534;6.442;2024-03-25T09:18:53;5.28;;;2.75;;
62633;SDS011;48704;50.534;6.442;2024-03-25T09:21:18;4.47;;;2.63;;
62633;SDS011;48704;50.534;6.442;2024-03-25T09:23:43;6.72;;;2.70;;
62633;SDS011;48704;50.534;6.442;2024-03-25T09:26:09;6.93;;;2.83;;
62633;SDS011;48704;50.534;6.442;2024-03-25T09:28:35;6.15;;;2.60;;
62633;SDS011;48704;50.534;6.442;2024-03-25T09:31:01;6.57;;;2.60;;
62633;SDS011;48704;50.534;6.442;2024-03-25T09:33:26;5.63;;;2.35;;
62633;SDS011;48704;50.534;6.442;2024-03-25T09:35:51;7.20;;;2.50;;
62633;SDS011;48704;50.534;6.442;2024-03-25T09:38:17;7.28;;;2.42;;
62633;SDS011;48704;50.534;6.442;2024-03-25T09:40:42;6.47;;;2.30;;
62633;SDS011;48704;50.534;6.442;2024-03-25T09:45:57;8.55;;;2.40;;
62633;SDS011;48704;50.534;6.442;2024-03-25T09:48:24;5.13;;;2.22;;
62633;SDS011;48704;50.534;6.442;2024-03-25T09:50:49;5.63;;;2.28;;
62633;SDS011;48704;50.534;6.442;2024-03-25T09:53:15;5.38;;;2.65;;
62633;SDS011;48704;50.534;6.442;2024-03-25T09:55:40;9.27;;;3.15;;
62633;SDS011;48704;50.534;6.442;2024-03-25T09:58:07;6.10;;;2.63;;
62633;SDS011;48704;50.534;6.442;2024-03-25T10:00:33;6.80;;;2.83;;
62633;SDS011;48704;50.534;6.442;2024-03-25T10:02:58;9.13;;;3.10;;
62633;SDS011;48704;50.534;6.442;2024-03-25T10:05:23;7.10;;;2.80;;
62633;SDS011;48704;50.534;6.442;2024-03-25T10:07:49;9.85;;;2.70;;
62633;SDS011;48704;50.534;6.442;2024-03-25T10:10:18;9.70;;;2.58;;
62633;SDS011;48704;50.534;6.442;2024-03-25T10:12:45;7.32;;;2.20;;
62633;SDS011;48704;50.534;6.442;2024-03-25T10:15:14;5.70;;;2.88;;
62633;SDS011;48704;50.534;6.442;2024-03-25T10:17:41;6.70;;;2.28;;
62633;SDS011;48704;50.534;6.442;2024-03-25T10:20:06;6.30;;;2.38;;
62633;SDS011;48704;50.534;6.442;2024-03-25T10:22:43;7.57;;;2.78;;
62633;SDS011;48704;50.534;6.442;2024-03-25T10:25:28;5.22;;;2.58;;
62633;SDS011;48704;50.534;6.442;2024-03-25T10:27:58;10.80;;;2.92;;
62633;SDS011;48704;50.534;6.442;2024-03-25T10:30:25;6.47;;;2.63;;
62633;SDS011;48704;50.534;6.442;2024-03-25T10:33:00;7.63;;;2.83;;
62633;SDS011;48704;50.534;6.442;2024-03-25T10:35:33;6.93;;;2.53;;
62633;SDS011;48704;50.534;6.442;2024-03-25T10:38:07;5.55;;;2.28;;
62633;SDS011;48704;50.534;6.442;2024-03-25T10:40:36;8.45;;;2.90;;
62633;SDS011;48704;50.534;6.442;2024-03-25T10:43:04;7.55;;;2.28;;
62633;SDS011;48704;50.534;6.442;2024-03-25T10:45:37;7.53;;;3.05;;
62633;SDS011;48704;50.534;6.442;2024-03-25T10:48:17;8.77;;;2.80;;
62633;SDS011;48704;50.534;6.442;2024-03-25T10:50:47;7.95;;;2.72;;
62633;SDS011;48704;50.534;6.442;2024-03-25T10:53:14;5.25;;;2.15;;
62633;SDS011;48704;50.534;6.442;2024-03-25T10:55:44;7.05;;;2.33;;
62633;SDS011;48704;50.534;6.442;2024-03-25T10:58:15;7.90;;;2.30;;
62633;SDS011;48704;50.534;6.442;2024-03-25T11:00:41;5.75;;;1.77;;
62633;SDS011;48704;50.534;6.442;2024-03-25T11:03:08;5.90;;;1.90;;
62633;SDS011;48704;50.534;6.442;2024-03-25T11:05:34;5.47;;;2.50;;
62633;SDS011;48704;50.534;6.442;2024-03-25T11:08:13;8.57;;;2.22;;
62633;SDS011;48704;50.534;6.442;2024-03-25T11:13:11;5.13;;;1.48;;
62633;SDS011;48704;50.534;6.442;2024-03-25T11:15:40;5.18;;;1.85;;
62633;SDS011;48704;50.534;6.442;2024-03-25T11:18:10;6.95;;;2.00;;
62633;SDS011;48704;50.534;6.442;2024-03-25T11:20:37;10.35;;;2.33;;
62633;SDS011;48704;50.534;6.442;2024-03-25T11:23:07;4.47;;;2.00;;
62633;SDS011;48704;50.534;6.442;2024-03-25T11:25:42;5.88;;;2.15;;
62633;SDS011;48704;50.534;6.442;2024-03-25T11:28:11;6.82;;;2.08;;
62633;SDS011;48704;50.534;6.442;2024-03-25T11:30:37;6.28;;;1.90;;
62633;SDS011;48704;50.534;6.442;2024-03-25T11:33:03;5.68;;;2.13;;
62633;SDS011;48704;50.534;6.442;2024-03-25T11:35:38;4.97;;;1.55;;
62633;SDS011;48704;50.534;6.442;2024-03-25T11:38:03;6.05;;;2.17;;
62633;SDS011;48704;50.534;6.442;2024-03-25T11:40:29;6.05;;;1.95;;
62633;SDS011;48704;50.534;6.442;2024-03-25T11:42:54;5.40;;;2.00;;
62633;SDS011;48704;50.534;6.442;2024-03-25T11:45:20;3.45;;;2.17;;
62633;SDS011;48704;50.534;6.442;2024-03-25T11:47:47;7.20;;;2.45;;
62633;SDS011;48704;50.534;6.442;2024-03-25T11:50:17;4.38;;;1.67;;
62633;SDS011;48704;50.534;6.442;2024-03-25T11:52:44;6.38;;;1.95;;
62633;SDS011;48704;50.534;6.442;2024-03-25T11:55:11;6.13;;;2.45;;
62633;SDS011;48704;50.534;6.442;2024-03-25T11:57:41;4.45;;;2.28;;
62633;SDS011;48704;50.534;6.442;2024-03-25T12:00:07;5.55;;;2.38;;
62633;SDS011;48704;50.534;6.442;2024-03-25T12:02:36;4.45;;;1.90;;
62633;SDS011;48704;50.534;6.442;2024-03-25T12:05:07;9.35;;;2.33;;
62633;SDS011;48704;50.534;6.442;2024-03-25T12:07:33;4.22;;;2.17;;
62633;SDS011;48704;50.534;6.442;2024-03-25T12:10:00;8.43;;;2.28;;
62633;SDS011;48704;50.534;6.442;2024-03-25T12:12:44;5.90;;;2.08;;
62633;SDS011;48704;50.534;6.442;2024-03-25T12:15:10;4.15;;;2.20;;
62633;SDS011;48704;50.534;6.442;2024-03-25T12:17:36;3.40;;;1.90;;
62633;SDS011;48704;50.534;6.442;2024-03-25T12:20:02;4.38;;;2.13;;
62633;SDS011;48704;50.534;6.442;2024-03-25T12:22:29;3.08;;;1.73;;
62633;SDS011;48704;50.534;6.442;2024-03-25T12:24:59;6.40;;;2.42;;
62633;SDS011;48704;50.534;6.442;2024-03-25T12:27:25;4.80;;;2.40;;
62633;SDS011;48704;50.534;6.442;2024-03-25T12:32:36;5.32;;;2.13;;
62633;SDS011;48704;50.534;6.442;2024-03-25T12:35:15;3.53;;;2.17;;
62633;SDS011;48704;50.534;6.442;2024-03-25T12:37:42;4.63;;;2.40;;
62633;SDS011;48704;50.534;6.442;2024-03-25T12:40:11;5.55;;;2.22;;
62633;SDS011;48704;50.534;6.442;2024-03-25T12:42:39;4.82;;;2.17;;
62633;SDS011;48704;50.534;6.442;2024-03-25T12:45:05;5.45;;;2.70;;
62633;SDS011;48704;50.534;6.442;2024-03-25T12:47:31;5.55;;;2.47;;
62633;SDS011;48704;50.534;6.442;2024-03-25T12:49:56;4.68;;;2.00;;
62633;SDS011;48704;50.534;6.442;2024-03-25T12:52:22;3.92;;;2.25;;
62633;SDS011;48704;50.534;6.442;2024-03-25T12:54:47;4.80;;;2.08;;
62633;SDS011;48704;50.534;6.442;2024-03-25T12:57:13;8.50;;;2.30;;
62633;SDS011;48704;50.534;6.442;2024-03-25T12:59:38;4.57;;;2.33;;
62633;SDS011;48704;50.534;6.442;2024-03-25T13:02:04;4.63;;;2.42;;
62633;SDS011;48704;50.534;6.442;2024-03-25T13:04:29;6.68;;;2.22;;
62633;SDS011;48704;50.534;6.442;2024-03-25T13:06:54;5.80;;;2.53;;
62633;SDS011;48704;50.534;6.442;2024-03-25T13:09:20;7.25;;;2.72;;
62633;SDS011;48704;50.534;6.442;2024-03-25T13:11:45;4.03;;;2.13;;
62633;SDS011;48704;50.534;6.442;2024-03-25T13:14:11;6.85;;;2.20;;
62633;SDS011;48704;50.534;6.442;2024-03-25T13:16:40;5.75;;;2.40;;
62633;SDS011;48704;50.534;6.442;2024-03-25T13:19:06;9.13;;;2.55;;
62633;SDS011;48704;50.534;6.442;2024-03-25T13:21:31;4.95;;;2.58;;
62633;SDS011;48704;50.534;6.442;2024-03-25T13:23:57;3.70;;;2.03;;
62633;SDS011;48704;50.534;6.442;2024-03-25T13:26:23;4.68;;;2.28;;
62633;SDS011;48704;50.534;6.442;2024-03-25T13:28:48;7.25;;;2.40;;
62633;SDS011;48704;50.534;6.442;2024-03-25T13:31:14;5.50;;;2.05;;
62633;SDS011;48704;50.534;6.442;2024-03-25T13:33:39;5.45;;;2.55;;
62633;SDS011;48704;50.534;6.442;2024-03-25T13:36:05;5.13;;;2.15;;
62633;SDS011;48704;50.534;6.442;2024-03-25T13:38:31;5.25;;;2.10;;
62633;SDS011;48704;50.534;6.442;2024-03-25T13:40:59;4.97;;;2.28;;
62633;SDS011;48704;50.534;6.442;2024-03-25T13:43:25;6.97;;;2.38;;
62633;SDS011;48704;50.534;6.442;2024-03-25T13:45:50;3.83;;;2.17;;
62633;SDS011;48704;50.534;6.442;2024-03-25T13:48:15;5.75;;;2.00;;
62633;SDS011;48704;50.534;6.442;2024-03-25T13:50:41;3.63;;;1.83;;
62633;SDS011;48704;50.534;6.442;2024-03-25T13:53:07;5.60;;;2.10;;
62633;SDS011;48704;50.534;6.442;2024-03-25T13:55:34;5.00;;;1.85;;
62633;SDS011;48704;50.534;6.442;2024-03-25T13:57:59;8.73;;;3.95;;
62633;SDS011;48704;50.534;6.442;2024-03-25T14:00:24;8.80;;;4.57;;
62633;SDS011;48704;50.534;6.442;2024-03-25T14:02:53;6.35;;;2.30;;
62633;SDS011;48704;50.534;6.442;2024-03-25T14:05:19;3.85;;;1.90;;
62633;SDS011;48704;50.534;6.442;2024-03-25T14:07:44;4.30;;;2.28;;
62633;SDS011;48704;50.534;6.442;2024-03-25T14:10:10;6.05;;;2.35;;
62633;SDS011;48704;50.534;6.442;2024-03-25T14:12:36;4.82;;;2.38;;
62633;SDS011;48704;50.534;6.442;2024-03-25T14:15:02;4.35;;;1.95;;
62633;SDS011;48704;50.534;6.442;2024-03-25T14:17:27;4.95;;;2.10;;
62633;SDS011;48704;50.534;6.442;2024-03-25T14:19:53;5.30;;;2.70;;
62633;SDS011;48704;50.534;6.442;2024-03-25T14:22:20;5.75;;;2.20;;
62633;SDS011;48704;50.534;6.442;2024-03-25T14:24:46;5.03;;;2.20;;
62633;SDS011;48704;50.534;6.442;2024-03-25T14:27:12;5.57;;;2.72;;
62633;SDS011;48704;50.534;6.442;2024-03-25T14:29:37;3.72;;;1.70;;
62633;SDS011;48704;50.534;6.442;2024-03-25T14:32:03;6.47;;;2.55;;
62633;SDS011;48704;50.534;6.442;2024-03-25T14:34:28;4.35;;;1.65;;
62633;SDS011;48704;50.534;6.442;2024-03-25T14:36:53;4.57;;;2.22;;
62633;SDS011;48704;50.534;6.442;2024-03-25T14:39:19;3.83;;;2.13;;
62633;SDS011;48704;50.534;6.442;2024-03-25T14:41:44;4.00;;;1.88;;
62633;SDS011;48704;50.534;6.442;2024-03-25T14:44:11;4.22;;;1.70;;
62633;SDS011;48704;50.534;6.442;2024-03-25T14:46:36;5.25;;;2.15;;
62633;SDS011;48704;50.534;6.442;2024-03-25T14:49:02;3.40;;;2.00;;